Time;durP1;ratioP1;P1;durP2;ratioP2;P2;SDS_P1;SDS_P2;PMS_P1;PMS_P2;Temp;Humidity;BMP_temperature;BMP_pressure;BME280_temperature;BME280_humidity;BME280_pressure;Samples;Min_cycle;Max_cycle;Signal;HPM_P1;HPM_P2
2022/02/21 00:02:23;;;;;;;1.25;0.32;;;;;;;;;;4976132;28;20054;-69
2022/02/21 00:04:49;;;;;;;2.08;0.50;;;;;;;;;;4959267;28;20051;-69
2022/02/21 00:07:16;;;;;;;2.92;0.85;;;;;;;;;;4976193;28;20074;-69
2022/02/21 00:09:42;;;;;;;4.57;1.40;;;;;;;;;;4976088;28;20046;-69
2022/02/21 00:12:09;;;;;;;1.90;0.60;;;;;;;;;;4973273;28;20110;-69
2022/02/21 00:14:39;;;;;;;1.90;0.50;;;;;;;;;;4953398;28;20050;-69
2022/02/21 00:17:05;;;;;;;1.83;0.40;;;;;;;;;;4976010;28;20047;-69
2022/02/21 00:19:33;;;;;;;1.27;0.50;;;;;;;;;;4976015;28;20050;-69
2022/02/21 00:21:59;;;;;;;4.65;0.50;;;;;;;;;;4975791;28;20051;-68
2022/02/21 00:24:26;;;;;;;0.93;0.40;;;;;;;;;;4975757;28;20102;-69
2022/02/21 00:26:53;;;;;;;1.20;0.50;;;;;;;;;;4963290;28;20192;-69
2022/02/21 00:29:19;;;;;;;1.08;0.40;;;;;;;;;;4973233;28;20046;-69
2022/02/21 00:31:46;;;;;;;2.22;0.80;;;;;;;;;;4975716;28;20055;-69
2022/02/21 00:34:12;;;;;;;1.95;0.68;;;;;;;;;;4975548;28;20051;-70
2022/02/21 00:36:39;;;;;;;4.88;1.05;;;;;;;;;;4975530;28;20082;-68
2022/02/21 00:39:05;;;;;;;2.10;0.63;;;;;;;;;;4974996;28;20398;-69
2022/02/21 00:41:32;;;;;;;1.83;0.50;;;;;;;;;;4975614;28;20105;-68
2022/02/21 00:43:59;;;;;;;3.20;0.85;;;;;;;;;;4975468;28;20126;-70
2022/02/21 00:46:25;;;;;;;1.48;0.60;;;;;;;;;;4975370;28;20082;-68
2022/02/21 00:48:52;;;;;;;1.02;0.50;;;;;;;;;;4975573;28;20465;-69
2022/02/21 00:51:18;;;;;;;1.52;0.50;;;;;;;;;;4975525;28;20055;-69
2022/02/21 00:53:45;;;;;;;2.95;0.47;;;;;;;;;;4975040;28;20054;-69
2022/02/21 00:56:12;;;;;;;2.53;0.75;;;;;;;;;;4974909;28;20458;-69
2022/02/21 00:58:38;;;;;;;3.22;0.73;;;;;;;;;;4975212;28;20054;-68
2022/02/21 01:01:05;;;;;;;3.40;0.70;;;;;;;;;;4975317;28;20050;-69
2022/02/21 01:03:31;;;;;;;4.18;0.65;;;;;;;;;;4975015;28;20510;-69
2022/02/21 01:05:58;;;;;;;3.20;0.63;;;;;;;;;;4975268;28;20109;-69
2022/02/21 01:08:25;;;;;;;5.13;0.70;;;;;;;;;;4975104;28;20110;-69
2022/02/21 01:10:51;;;;;;;6.70;0.80;;;;;;;;;;4975054;28;20108;-69
2022/02/21 01:13:18;;;;;;;2.80;0.70;;;;;;;;;;4974942;28;20473;-69
2022/02/21 01:15:45;;;;;;;4.38;0.98;;;;;;;;;;4974864;28;20059;-69
2022/02/21 01:18:11;;;;;;;3.45;0.70;;;;;;;;;;4974948;28;20059;-69
2022/02/21 01:20:38;;;;;;;4.45;1.02;;;;;;;;;;4963734;28;20102;-68
2022/02/21 01:23:04;;;;;;;5.65;0.93;;;;;;;;;;4955372;29;20498;-69
2022/02/21 01:25:31;;;;;;;3.45;0.68;;;;;;;;;;4955409;29;20577;-68
2022/02/21 01:27:58;;;;;;;3.50;0.65;;;;;;;;;;4955532;29;20043;-69
2022/02/21 01:30:24;;;;;;;1.77;0.57;;;;;;;;;;4955427;29;20051;-69
2022/02/21 01:32:51;;;;;;;2.25;0.73;;;;;;;;;;4938234;29;20059;-69
2022/02/21 01:35:18;;;;;;;2.80;0.57;;;;;;;;;;4955526;29;20467;-69
2022/02/21 01:37:44;;;;;;;3.53;0.60;;;;;;;;;;4958323;29;20051;-70
2022/02/21 01:40:11;;;;;;;3.45;0.73;;;;;;;;;;4966350;29;20059;-69
2022/02/21 01:42:38;;;;;;;3.15;1.05;;;;;;;;;;4971391;29;20075;-69
2022/02/21 01:45:05;;;;;;;1.45;0.60;;;;;;;;;;4953908;29;20048;-69
2022/02/21 01:47:32;;;;;;;2.45;0.80;;;;;;;;;;4975689;28;20256;-70
2022/02/21 01:49:59;;;;;;;2.97;0.57;;;;;;;;;;4993717;28;20075;-70
2022/02/21 01:52:25;;;;;;;5.35;1.52;;;;;;;;;;4992882;28;20050;-70
2022/02/21 01:54:52;;;;;;;1.55;0.50;;;;;;;;;;4992785;28;20074;-70
2022/02/21 01:57:18;;;;;;;4.07;0.98;;;;;;;;;;4994298;28;20046;-70
2022/02/21 01:59:45;;;;;;;5.28;1.42;;;;;;;;;;4992252;28;20090;-70
2022/02/21 02:02:12;;;;;;;5.78;0.60;;;;;;;;;;4965427;28;20056;-70
2022/02/21 02:04:39;;;;;;;3.45;0.77;;;;;;;;;;4954783;29;20114;-70
2022/02/21 02:07:06;;;;;;;5.07;0.88;;;;;;;;;;4954950;29;20094;-70
2022/02/21 02:09:33;;;;;;;1.20;0.60;;;;;;;;;;4937079;29;20227;-70
2022/02/21 02:11:59;;;;;;;1.30;0.40;;;;;;;;;;4954425;29;20429;-70
2022/02/21 02:14:27;;;;;;;3.42;0.52;;;;;;;;;;4963429;28;20462;-69
2022/02/21 02:16:53;;;;;;;2.85;0.63;;;;;;;;;;4973870;28;20051;-70
2022/02/21 02:19:20;;;;;;;2.17;0.38;;;;;;;;;;4973942;28;20050;-69
2022/02/21 02:21:51;;;;;;;4.28;0.75;;;;;;;;;;4956840;28;20046;-70
2022/02/21 02:24:18;;;;;;;2.78;0.95;;;;;;;;;;4972432;28;20194;-69
2022/02/21 02:26:44;;;;;;;3.50;0.63;;;;;;;;;;4956577;28;20051;-70
2022/02/21 02:29:11;;;;;;;1.27;0.40;;;;;;;;;;4954728;28;20115;-70
2022/02/21 02:31:37;;;;;;;3.40;0.77;;;;;;;;;;4954448;29;20111;-70
2022/02/21 02:34:04;;;;;;;2.75;0.60;;;;;;;;;;4954183;29;20055;-70
2022/02/21 02:36:30;;;;;;;2.15;0.57;;;;;;;;;;4954310;29;20055;-70
2022/02/21 02:38:57;;;;;;;1.42;0.40;;;;;;;;;;4954207;29;20047;-70
2022/02/21 02:41:24;;;;;;;1.92;0.52;;;;;;;;;;4954266;29;20067;-70
2022/02/21 02:43:50;;;;;;;2.10;0.40;;;;;;;;;;4953898;29;20055;-70
2022/02/21 02:46:17;;;;;;;3.08;0.50;;;;;;;;;;4954070;29;20498;-70
2022/02/21 02:48:43;;;;;;;2.25;0.43;;;;;;;;;;4966385;28;20498;-70
2022/02/21 02:51:10;;;;;;;1.17;0.60;;;;;;;;;;4973409;28;20051;-70
2022/02/21 02:53:36;;;;;;;1.73;0.60;;;;;;;;;;4972975;28;20105;-70
2022/02/21 02:56:03;;;;;;;0.80;0.40;;;;;;;;;;4973411;28;20047;-70
2022/02/21 02:58:30;;;;;;;2.03;0.52;;;;;;;;;;4972981;28;20390;-70
2022/02/21 03:00:56;;;;;;;2.28;0.55;;;;;;;;;;4973334;28;20055;-71
2022/02/21 03:03:23;;;;;;;1.65;0.60;;;;;;;;;;4972955;28;20082;-70
2022/02/21 03:05:49;;;;;;;2.10;0.80;;;;;;;;;;4973116;28;20116;-69
2022/02/21 03:08:16;;;;;;;5.28;1.55;;;;;;;;;;4972855;28;20046;-70
2022/02/21 03:10:42;;;;;;;3.20;0.63;;;;;;;;;;4973000;28;20442;-70
2022/02/21 03:13:09;;;;;;;1.65;0.40;;;;;;;;;;4972913;28;20498;-69
2022/02/21 03:15:36;;;;;;;2.17;0.45;;;;;;;;;;4972927;28;20086;-70
2022/02/21 03:18:02;;;;;;;0.60;0.52;;;;;;;;;;4973052;28;20457;-70
2022/02/21 03:20:29;;;;;;;4.38;0.63;;;;;;;;;;4972251;28;20470;-70
2022/02/21 03:22:55;;;;;;;2.70;0.95;;;;;;;;;;4955741;28;20047;-70
2022/02/21 03:25:22;;;;;;;0.50;0.30;;;;;;;;;;4953463;29;20557;-69
2022/02/21 03:27:49;;;;;;;4.22;0.40;;;;;;;;;;4953381;29;20051;-70
2022/02/21 03:30:15;;;;;;;1.95;0.55;;;;;;;;;;4953621;29;20109;-70
2022/02/21 03:32:42;;;;;;;1.90;0.40;;;;;;;;;;4953518;29;20051;-69
2022/02/21 03:35:08;;;;;;;1.65;0.47;;;;;;;;;;4960559;28;20051;-70
2022/02/21 03:37:35;;;;;;;1.80;0.35;;;;;;;;;;4972584;28;20051;-70
2022/02/21 03:40:06;;;;;;;2.47;0.60;;;;;;;;;;4972625;28;20055;-70
2022/02/21 03:42:33;;;;;;;1.58;0.60;;;;;;;;;;4968289;28;20047;-70
2022/02/21 03:45:01;;;;;;;7.22;0.98;;;;;;;;;;4972412;28;20430;-70
2022/02/21 03:47:28;;;;;;;3.85;0.65;;;;;;;;;;4972577;28;20556;-70
2022/02/21 03:49:54;;;;;;;3.67;1.08;;;;;;;;;;4972234;28;20109;-70
2022/02/21 03:52:21;;;;;;;4.00;1.60;;;;;;;;;;4972239;28;20121;-70
2022/02/21 03:54:48;;;;;;;2.28;0.63;;;;;;;;;;4972269;28;20490;-70
2022/02/21 03:57:14;;;;;;;1.98;0.93;;;;;;;;;;4963104;28;20478;-70
2022/02/21 03:59:41;;;;;;;7.97;2.00;;;;;;;;;;4955137;28;20117;-70
2022/02/21 04:02:11;;;;;;;3.05;1.15;;;;;;;;;;4972571;28;20058;-70
2022/02/21 04:04:38;;;;;;;1.80;0.70;;;;;;;;;;4970897;28;20284;-70
2022/02/21 04:07:05;;;;;;;6.93;1.15;;;;;;;;;;4968500;28;20477;-69
2022/02/21 04:09:31;;;;;;;5.55;1.30;;;;;;;;;;4972400;28;20089;-70
2022/02/21 04:11:58;;;;;;;3.83;0.57;;;;;;;;;;4969059;28;20406;-70
2022/02/21 04:14:25;;;;;;;5.38;0.73;;;;;;;;;;4959623;28;20512;-69
2022/02/21 04:16:51;;;;;;;5.30;0.85;;;;;;;;;;4962333;28;20063;-69
2022/02/21 04:19:18;;;;;;;5.10;0.80;;;;;;;;;;4953198;28;20051;-69
2022/02/21 04:21:44;;;;;;;2.40;0.70;;;;;;;;;;4952897;28;20055;-69
2022/02/21 04:24:11;;;;;;;4.60;0.80;;;;;;;;;;4952901;29;20561;-70
2022/02/21 04:26:37;;;;;;;5.07;0.80;;;;;;;;;;4952958;29;20054;-69
2022/02/21 04:29:04;;;;;;;2.67;0.60;;;;;;;;;;4953038;29;20059;-70
2022/02/21 04:31:31;;;;;;;2.70;0.52;;;;;;;;;;4952460;28;20051;-70
2022/02/21 04:33:57;;;;;;;4.32;0.80;;;;;;;;;;4956321;29;20055;-70
2022/02/21 04:36:24;;;;;;;3.42;0.80;;;;;;;;;;4956445;29;20446;-70
2022/02/21 04:38:51;;;;;;;3.15;1.27;;;;;;;;;;4954992;29;20109;-69
2022/02/21 04:41:18;;;;;;;4.28;0.60;;;;;;;;;;4955196;29;20047;-69
2022/02/21 04:43:45;;;;;;;2.22;0.50;;;;;;;;;;4955978;29;20493;-71
2022/02/21 04:46:11;;;;;;;1.70;0.70;;;;;;;;;;4971245;28;20057;-70
2022/02/21 04:48:38;;;;;;;3.42;0.85;;;;;;;;;;4976999;28;20043;-70
2022/02/21 04:51:05;;;;;;;3.13;0.77;;;;;;;;;;4975590;28;20485;-70
2022/02/21 04:53:31;;;;;;;2.80;0.82;;;;;;;;;;4975231;28;20109;-70
2022/02/21 04:55:58;;;;;;;2.88;1.00;;;;;;;;;;4975567;28;20102;-70
2022/02/21 04:58:24;;;;;;;5.35;0.80;;;;;;;;;;4965077;28;20490;-71
2022/02/21 05:00:51;;;;;;;3.13;0.80;;;;;;;;;;4956319;28;20062;-70
2022/02/21 05:03:18;;;;;;;4.45;1.00;;;;;;;;;;4955777;29;20522;-70
2022/02/21 05:05:45;;;;;;;6.80;1.55;;;;;;;;;;4955930;28;20055;-70
2022/02/21 05:08:11;;;;;;;3.97;0.77;;;;;;;;;;4955718;28;20498;-71
2022/02/21 05:10:38;;;;;;;4.10;0.85;;;;;;;;;;5004562;23;20042;-68
2022/02/21 05:13:04;;;;;;;5.78;1.10;;;;;;;;;;4994056;28;20050;-69
2022/02/21 05:15:31;;;;;;;4.25;1.25;;;;;;;;;;4994501;28;20472;-68
2022/02/21 05:17:57;;;;;;;5.13;1.77;;;;;;;;;;4994606;28;20049;-66
2022/02/21 05:20:24;;;;;;;10.35;1.55;;;;;;;;;;5005744;28;20560;-69
2022/02/21 05:22:51;;;;;;;3.85;1.00;;;;;;;;;;5013179;28;20112;-69
2022/02/21 05:25:18;;;;;;;7.57;1.17;;;;;;;;;;5014091;28;20050;-70
2022/02/21 05:27:45;;;;;;;5.97;1.58;;;;;;;;;;5014413;28;20077;-70
2022/02/21 05:30:13;;;;;;;4.22;1.00;;;;;;;;;;5015048;28;20408;-70
2022/02/21 05:32:41;;;;;;;4.50;0.90;;;;;;;;;;4997178;28;20109;-70
2022/02/21 05:35:08;;;;;;;5.20;0.98;;;;;;;;;;5015236;28;20104;-70
2022/02/21 05:37:35;;;;;;;6.25;1.80;;;;;;;;;;5016804;28;20056;-70
2022/02/21 05:40:03;;;;;;;8.35;2.13;;;;;;;;;;5016809;28;20053;-70
2022/02/21 05:42:30;;;;;;;6.22;1.30;;;;;;;;;;4980423;28;20061;-72
2022/02/21 05:44:57;;;;;;;7.03;1.20;;;;;;;;;;5012548;28;20050;-71
2022/02/21 05:47:24;;;;;;;8.43;1.40;;;;;;;;;;5004468;28;20065;-69
2022/02/21 05:49:50;;;;;;;9.13;1.20;;;;;;;;;;4993924;28;20108;-68
2022/02/21 05:52:17;;;;;;;6.18;1.20;;;;;;;;;;4993843;28;20074;-68
2022/02/21 05:54:45;;;;;;;5.53;1.25;;;;;;;;;;4993698;28;20058;-69
2022/02/21 05:57:12;;;;;;;9.70;1.10;;;;;;;;;;4994046;28;20077;-70
2022/02/21 05:59:39;;;;;;;10.15;1.63;;;;;;;;;;4993412;28;20050;-69
2022/02/21 06:02:05;;;;;;;3.85;1.20;;;;;;;;;;4993638;28;20093;-70
2022/02/21 06:04:32;;;;;;;10.68;1.75;;;;;;;;;;4993514;28;20054;-70
2022/02/21 06:06:59;;;;;;;7.97;1.77;;;;;;;;;;4993700;28;20108;-70
2022/02/21 06:09:25;;;;;;;15.15;1.85;;;;;;;;;;4993246;28;20105;-70
2022/02/21 06:11:52;;;;;;;9.90;1.60;;;;;;;;;;4993489;28;20054;-69
2022/02/21 06:14:18;;;;;;;8.52;1.60;;;;;;;;;;4993243;28;20050;-69
2022/02/21 06:16:45;;;;;;;8.45;1.83;;;;;;;;;;4993270;28;20057;-68
2022/02/21 06:19:12;;;;;;;5.72;1.80;;;;;;;;;;4993175;28;20043;-69
2022/02/21 06:21:39;;;;;;;11.18;1.95;;;;;;;;;;4993371;28;20124;-70
2022/02/21 06:24:10;;;;;;;5.55;1.13;;;;;;;;;;4992910;28;20101;-70
2022/02/21 06:26:36;;;;;;;7.68;1.65;;;;;;;;;;4993266;28;20050;-69
2022/02/21 06:29:03;;;;;;;11.85;2.47;;;;;;;;;;4993123;28;20460;-69
2022/02/21 06:31:31;;;;;;;10.25;2.08;;;;;;;;;;4993103;28;20186;-69
2022/02/21 06:33:57;;;;;;;12.65;2.00;;;;;;;;;;4993246;28;20125;-69
2022/02/21 06:36:24;;;;;;;6.70;1.98;;;;;;;;;;4993160;28;20054;-69
2022/02/21 06:38:51;;;;;;;8.18;2.47;;;;;;;;;;4993096;28;20104;-69
2022/02/21 06:41:18;;;;;;;11.93;2.47;;;;;;;;;;4993289;28;20057;-69
2022/02/21 06:43:45;;;;;;;9.90;2.58;;;;;;;;;;4994080;28;20464;-70
2022/02/21 06:46:11;;;;;;;8.63;1.30;;;;;;;;;;4977605;28;20054;-72
2022/02/21 06:48:38;;;;;;;8.18;1.77;;;;;;;;;;4994941;28;20460;-69
2022/02/21 06:51:05;;;;;;;5.68;1.60;;;;;;;;;;4976924;28;20106;-71
2022/02/21 06:53:32;;;;;;;7.05;2.58;;;;;;;;;;4994031;28;20244;-70
2022/02/21 06:55:58;;;;;;;11.68;2.10;;;;;;;;;;5007752;28;20555;-70
2022/02/21 06:58:25;;;;;;;10.95;2.00;;;;;;;;;;5012101;28;20500;-70
2022/02/21 07:00:52;;;;;;;6.32;1.27;;;;;;;;;;5012135;28;20061;-70
2022/02/21 07:03:18;;;;;;;7.13;1.52;;;;;;;;;;5010636;28;20045;-68
2022/02/21 07:05:45;;;;;;;9.30;1.67;;;;;;;;;;5011275;28;20080;-70
2022/02/21 07:08:12;;;;;;;9.18;2.22;;;;;;;;;;5011997;28;20045;-70
2022/02/21 07:10:39;;;;;;;8.57;2.50;;;;;;;;;;5011775;28;20084;-69
2022/02/21 07:13:05;;;;;;;5.85;1.83;;;;;;;;;;5011853;28;20111;-70
2022/02/21 07:15:32;;;;;;;7.00;2.70;;;;;;;;;;5007846;28;20105;-70
2022/02/21 07:17:59;;;;;;;5.38;2.10;;;;;;;;;;5007788;28;20042;-68
2022/02/21 07:20:26;;;;;;;9.68;1.92;;;;;;;;;;5011759;28;20574;-70
2022/02/21 07:22:53;;;;;;;12.02;2.60;;;;;;;;;;5011960;28;20065;-69
2022/02/21 07:25:22;;;;;;;10.93;2.38;;;;;;;;;;5012145;28;20457;-69
2022/02/21 07:27:51;;;;;;;10.60;3.10;;;;;;;;;;5011909;28;20046;-69
2022/02/21 07:30:19;;;;;;;13.40;2.80;;;;;;;;;;4997912;28;20085;-70
2022/02/21 07:32:47;;;;;;;12.57;1.92;;;;;;;;;;4991989;28;20429;-71
2022/02/21 07:35:14;;;;;;;13.30;2.35;;;;;;;;;;4992078;28;20054;-70
2022/02/21 07:37:41;;;;;;;12.27;2.25;;;;;;;;;;4999436;28;20168;-65
2022/02/21 07:40:09;;;;;;;8.65;2.22;;;;;;;;;;4981081;28;20054;-68
2022/02/21 07:42:36;;;;;;;11.15;2.78;;;;;;;;;;4982366;28;20050;-67
2022/02/21 07:45:03;;;;;;;10.77;2.25;;;;;;;;;;4978934;28;20137;-69
2022/02/21 07:47:30;;;;;;;16.05;3.38;;;;;;;;;;4982754;28;20058;-68
2022/02/21 07:49:56;;;;;;;7.55;2.08;;;;;;;;;;4977036;28;20105;-68
2022/02/21 07:52:24;;;;;;;10.75;1.80;;;;;;;;;;4923207;28;20254;-66
2022/02/21 07:54:51;;;;;;;13.05;2.40;;;;;;;;;;4958295;28;20627;-69
2022/02/21 07:57:17;;;;;;;10.30;1.92;;;;;;;;;;4957481;28;20059;-68
2022/02/21 07:59:44;;;;;;;11.00;2.20;;;;;;;;;;4958244;28;20046;-68
2022/02/21 08:02:10;;;;;;;16.58;2.25;;;;;;;;;;4955589;28;20118;-68
2022/02/21 08:04:37;;;;;;;17.27;2.85;;;;;;;;;;4962601;28;20051;-69
2022/02/21 08:07:04;;;;;;;11.90;2.55;;;;;;;;;;4958002;28;20055;-69
2022/02/21 08:09:30;;;;;;;10.68;1.60;;;;;;;;;;4961162;28;20567;-69
2022/02/21 08:11:57;;;;;;;11.80;2.20;;;;;;;;;;4964516;28;20102;-64
2022/02/21 08:14:24;;;;;;;15.18;1.55;;;;;;;;;;4975801;28;20055;-69
2022/02/21 08:16:50;;;;;;;10.93;2.20;;;;;;;;;;4979023;28;20082;-65
2022/02/21 08:19:17;;;;;;;9.30;1.92;;;;;;;;;;4979956;28;20047;-70
2022/02/21 08:21:44;;;;;;;14.30;3.50;;;;;;;;;;4976899;28;20058;-69
2022/02/21 08:24:11;;;;;;;16.50;3.17;;;;;;;;;;4975579;28;20043;-69
2022/02/21 08:26:37;;;;;;;13.43;3.25;;;;;;;;;;4966905;28;20059;-69
2022/02/21 08:29:04;;;;;;;10.07;2.47;;;;;;;;;;4974948;28;20106;-68
2022/02/21 08:31:30;;;;;;;9.50;2.13;;;;;;;;;;4977036;28;20102;-67
2022/02/21 08:33:57;;;;;;;7.85;2.40;;;;;;;;;;4975447;28;20059;-70
2022/02/21 08:36:25;;;;;;;8.23;2.28;;;;;;;;;;4970230;28;20055;-67
2022/02/21 08:38:53;;;;;;;8.82;1.95;;;;;;;;;;4971416;28;20078;-70
2022/02/21 08:41:19;;;;;;;13.73;2.90;;;;;;;;;;4973669;28;20058;-69
2022/02/21 08:43:46;;;;;;;10.38;2.05;;;;;;;;;;4970937;28;20269;-70
2022/02/21 08:46:13;;;;;;;6.85;1.65;;;;;;;;;;4972680;28;20081;-72
2022/02/21 08:49:00;;;;;;;9.68;1.98;;;;;;;;;;4978825;28;20063;-68
2022/02/21 08:51:27;;;;;;;13.35;2.45;;;;;;;;;;4972694;28;20082;-67
2022/02/21 08:53:54;;;;;;;10.57;2.38;;;;;;;;;;4974890;28;20047;-68
2022/02/21 08:56:20;;;;;;;8.55;1.75;;;;;;;;;;4972787;28;20509;-71
2022/02/21 08:58:47;;;;;;;17.95;2.25;;;;;;;;;;4961351;28;20478;-66
2022/02/21 09:01:14;;;;;;;11.43;2.17;;;;;;;;;;4959335;28;20063;-69
2022/02/21 09:03:41;;;;;;;10.35;1.70;;;;;;;;;;4961700;28;20517;-68
2022/02/21 09:06:08;;;;;;;12.20;1.83;;;;;;;;;;4959132;28;20050;-67
2022/02/21 09:08:35;;;;;;;12.35;1.90;;;;;;;;;;4963359;28;20043;-67
2022/02/21 09:11:02;;;;;;;6.38;1.77;;;;;;;;;;4963230;28;20047;-68
2022/02/21 09:13:29;;;;;;;11.55;1.95;;;;;;;;;;4983395;28;20047;-65
2022/02/21 09:15:55;;;;;;;9.77;1.80;;;;;;;;;;4988455;28;20047;-64
2022/02/21 09:18:22;;;;;;;11.98;1.60;;;;;;;;;;4983187;28;20043;-66
2022/02/21 09:20:48;;;;;;;9.30;1.90;;;;;;;;;;4975589;28;20055;-66
2022/02/21 09:23:15;;;;;;;7.93;1.50;;;;;;;;;;4980539;28;20059;-68
2022/02/21 09:25:42;;;;;;;6.15;1.65;;;;;;;;;;4970309;28;20047;-67
2022/02/21 09:28:09;;;;;;;8.45;1.52;;;;;;;;;;4964184;28;20047;-68
2022/02/21 09:30:36;;;;;;;13.57;1.90;;;;;;;;;;4964327;28;20054;-68
2022/02/21 09:33:02;;;;;;;7.68;2.05;;;;;;;;;;4960576;28;20047;-68
2022/02/21 09:35:29;;;;;;;8.18;1.60;;;;;;;;;;4965956;28;20110;-68
2022/02/21 09:37:57;;;;;;;8.35;1.52;;;;;;;;;;4960525;28;20051;-70
2022/02/21 09:40:24;;;;;;;11.13;1.40;;;;;;;;;;4962263;28;20482;-73
2022/02/21 09:42:50;;;;;;;10.13;1.55;;;;;;;;;;4967444;28;20074;-71
2022/02/21 09:45:20;;;;;;;10.68;2.00;;;;;;;;;;4971104;28;20047;-74
2022/02/21 09:47:50;;;;;;;6.57;1.48;;;;;;;;;;4975858;28;20055;-74
2022/02/21 09:50:36;;;;;;;5.95;1.88;;;;;;;;;;4979968;28;20437;-73
2022/02/21 09:53:04;;;;;;;10.52;1.60;;;;;;;;;;4968971;28;20046;-67
2022/02/21 09:55:32;;;;;;;9.68;1.65;;;;;;;;;;4971763;28;20047;-71
2022/02/21 09:57:59;;;;;;;7.25;1.58;;;;;;;;;;4964223;28;20043;-69
2022/02/21 10:00:27;;;;;;;10.15;1.63;;;;;;;;;;4961032;28;20051;-68
2022/02/21 10:02:55;;;;;;;3.53;0.90;;;;;;;;;;4965205;28;20055;-69
2022/02/21 10:05:25;;;;;;;6.40;1.42;;;;;;;;;;4961876;28;20441;-69
2022/02/21 10:07:52;;;;;;;6.93;1.30;;;;;;;;;;4959624;28;20051;-69
2022/02/21 10:10:21;;;;;;;17.00;1.88;;;;;;;;;;4966762;28;20106;-69
2022/02/21 10:12:48;;;;;;;6.88;1.30;;;;;;;;;;4963049;28;20055;-72
2022/02/21 10:15:18;;;;;;;9.68;1.63;;;;;;;;;;4967133;28;20433;-72
2022/02/21 10:17:48;;;;;;;4.70;0.88;;;;;;;;;;4975390;28;20555;-74
2022/02/21 10:20:17;;;;;;;7.78;1.88;;;;;;;;;;4972439;28;20051;-72
2022/02/21 10:23:04;;;;;;;9.80;1.88;;;;;;;;;;4972325;28;20055;-71
2022/02/21 10:25:32;;;;;;;8.10;1.50;;;;;;;;;;4977656;28;20089;-73
2022/02/21 10:27:59;;;;;;;6.40;1.50;;;;;;;;;;4991707;28;20048;-73
2022/02/21 10:30:27;;;;;;;11.68;2.05;;;;;;;;;;4960142;28;20066;-71
2022/02/21 10:33:11;;;;;;;6.07;1.35;;;;;;;;;;4963959;28;20505;-71
2022/02/21 10:35:40;;;;;;;4.55;1.38;;;;;;;;;;4962880;28;20077;-72
2022/02/21 10:38:09;;;;;;;6.53;1.10;;;;;;;;;;4978852;28;20099;-73
2022/02/21 10:40:37;;;;;;;6.60;0.95;;;;;;;;;;4957796;28;20058;-72
2022/02/21 10:43:09;;;;;;;5.13;1.25;;;;;;;;;;4965143;28;20042;-73
2022/02/21 10:45:38;;;;;;;8.40;1.77;;;;;;;;;;4958866;28;20059;-71
2022/02/21 10:48:06;;;;;;;5.85;1.85;;;;;;;;;;4960776;28;20114;-71
2022/02/21 10:50:52;;;;;;;9.02;1.60;;;;;;;;;;4957906;28;20043;-70
2022/02/21 10:53:23;;;;;;;8.70;1.30;;;;;;;;;;4962823;28;20051;-71
2022/02/21 10:55:51;;;;;;;9.73;2.13;;;;;;;;;;4960716;28;20089;-74
2022/02/21 10:58:20;;;;;;;5.43;1.05;;;;;;;;;;4965474;28;20059;-70
2022/02/21 11:00:50;;;;;;;8.25;1.52;;;;;;;;;;4989732;28;20101;-71
2022/02/21 11:03:18;;;;;;;6.05;1.17;;;;;;;;;;4991353;28;20027;-72
2022/02/21 11:05:46;;;;;;;6.25;1.45;;;;;;;;;;4983668;28;20075;-67
2022/02/21 11:08:13;;;;;;;3.92;1.33;;;;;;;;;;4998905;28;20028;-67
2022/02/21 11:10:40;;;;;;;2.80;0.73;;;;;;;;;;5003194;23;20102;-69
2022/02/21 11:13:07;;;;;;;5.65;1.00;;;;;;;;;;4939990;29;20047;-70
2022/02/21 11:15:33;;;;;;;6.03;1.00;;;;;;;;;;4942155;29;20105;-69
2022/02/21 11:18:01;;;;;;;8.02;2.80;;;;;;;;;;4941506;29;20105;-70
2022/02/21 11:20:27;;;;;;;6.53;1.58;;;;;;;;;;4939245;29;20047;-71
2022/02/21 11:22:54;;;;;;;5.35;0.90;;;;;;;;;;4942439;29;20043;-70
2022/02/21 11:25:33;;;;;;;4.05;0.93;;;;;;;;;;4944640;29;20103;-70
2022/02/21 11:28:11;;;;;;;4.93;1.08;;;;;;;;;;4947309;28;20055;-70
2022/02/21 11:30:38;;;;;;;5.20;1.17;;;;;;;;;;4941670;28;20099;-70
2022/02/21 11:33:09;;;;;;;6.60;1.33;;;;;;;;;;4928806;29;20079;-70
2022/02/21 11:35:37;;;;;;;5.45;1.20;;;;;;;;;;4947847;29;20106;-71
2022/02/21 11:38:13;;;;;;;8.32;1.65;;;;;;;;;;4949495;28;20090;-70
2022/02/21 11:40:52;;;;;;;7.85;1.20;;;;;;;;;;4945467;29;20115;-70
2022/02/21 11:43:35;;;;;;;3.40;0.88;;;;;;;;;;4954729;29;20074;-70
2022/02/21 11:46:04;;;;;;;2.10;0.90;;;;;;;;;;4949574;29;20348;-70
2022/02/21 11:49:02;;;;;;;5.63;1.90;;;;;;;;;;4950137;29;20051;-71
2022/02/21 11:51:32;;;;;;;2.85;1.20;;;;;;;;;;4949942;28;20544;-69
2022/02/21 11:54:14;;;;;;;3.70;1.08;;;;;;;;;;4952120;28;20043;-70
2022/02/21 11:56:49;;;;;;;4.90;1.20;;;;;;;;;;4950312;29;20055;-69
2022/02/21 11:59:22;;;;;;;4.82;0.95;;;;;;;;;;4946967;29;20075;-68
2022/02/21 12:02:01;;;;;;;;;;;;;;;;;;4946451;28;20048;-71
2022/02/21 12:04:29;;;;;;;6.30;1.50;;;;;;;;;;4955689;29;19946;-72
2022/02/21 12:06:58;;;;;;;5.28;1.10;;;;;;;;;;4952011;28;20059;-72
2022/02/21 12:09:26;;;;;;;4.90;1.25;;;;;;;;;;4966796;28;20055;-71
2022/02/21 12:12:22;;;;;;;6.38;1.08;;;;;;;;;;4956361;28;20478;-71
2022/02/21 12:15:11;;;;;;;5.40;1.88;;;;;;;;;;4953467;29;20055;-73
2022/02/21 12:17:38;;;;;;;6.82;1.33;;;;;;;;;;4955354;29;20048;-71
2022/02/21 12:20:27;;;;;;;3.55;1.00;;;;;;;;;;4958936;28;20091;-70
2022/02/21 12:23:09;;;;;;;10.18;1.13;;;;;;;;;;4949727;29;20052;-72
2022/02/21 12:25:39;;;;;;;9.00;1.42;;;;;;;;;;4951305;29;20047;-74
2022/02/21 12:28:17;;;;;;;8.02;1.27;;;;;;;;;;4960059;28;20055;-75
2022/02/21 12:30:50;;;;;;;6.28;1.40;;;;;;;;;;4957069;28;20055;-73
2022/02/21 12:33:29;;;;;;;5.85;1.48;;;;;;;;;;4950261;29;20548;-69
2022/02/21 12:35:57;;;;;;;4.10;1.35;;;;;;;;;;4951283;29;20051;-71
2022/02/21 12:38:26;;;;;;;4.05;1.10;;;;;;;;;;4949644;28;20044;-70
2022/02/21 12:41:02;;;;;;;4.82;1.27;;;;;;;;;;4952176;28;20102;-71
2022/02/21 12:43:53;;;;;;;2.45;0.98;;;;;;;;;;4947122;29;20426;-70
2022/02/21 12:46:23;;;;;;;5.65;1.35;;;;;;;;;;4954966;29;20051;-70
2022/02/21 12:48:51;;;;;;;3.50;1.45;;;;;;;;;;4950881;29;20044;-71
2022/02/21 12:51:20;;;;;;;5.93;1.33;;;;;;;;;;4955928;28;20043;-72
2022/02/21 12:53:59;;;;;;;4.20;0.85;;;;;;;;;;4948799;28;20055;-71
2022/02/21 12:56:47;;;;;;;5.45;1.67;;;;;;;;;;4945348;28;20383;-73
2022/02/21 12:59:19;;;;;;;6.85;1.75;;;;;;;;;;4945576;28;20055;-70
2022/02/21 13:01:47;;;;;;;4.68;1.02;;;;;;;;;;4943813;28;20087;-71
2022/02/21 13:04:14;;;;;;;6.85;1.23;;;;;;;;;;4951507;29;20461;-71
2022/02/21 13:06:41;;;;;;;4.75;1.02;;;;;;;;;;4946882;29;20051;-71
2022/02/21 13:09:08;;;;;;;8.90;1.23;;;;;;;;;;4948578;29;20095;-73
2022/02/21 13:11:36;;;;;;;4.43;0.82;;;;;;;;;;4941035;29;20051;-71
2022/02/21 13:14:28;;;;;;;2.30;0.80;;;;;;;;;;4944866;29;20063;-73
2022/02/21 13:16:56;;;;;;;5.85;0.98;;;;;;;;;;4946236;29;20086;-71
2022/02/21 13:19:53;;;;;;;3.63;1.00;;;;;;;;;;4944110;29;20098;-70
2022/02/21 13:22:27;;;;;;;5.25;0.75;;;;;;;;;;4942819;29;20095;-71
2022/02/21 13:24:58;;;;;;;3.22;0.95;;;;;;;;;;4958141;28;20057;-69
2022/02/21 13:27:29;;;;;;;5.50;0.70;;;;;;;;;;4981200;28;20101;-71
2022/02/21 13:29:56;;;;;;;4.95;1.52;;;;;;;;;;4980306;28;20382;-70
2022/02/21 13:32:30;;;;;;;8.15;1.60;;;;;;;;;;4988087;28;20150;-71
2022/02/21 13:35:14;;;;;;;6.68;1.08;;;;;;;;;;4980323;28;20080;-71
2022/02/21 13:37:43;;;;;;;5.78;1.65;;;;;;;;;;4979515;28;20133;-70
2022/02/21 13:40:11;;;;;;;4.88;1.10;;;;;;;;;;4981412;28;20049;-71
2022/02/21 13:42:46;;;;;;;7.70;1.83;;;;;;;;;;4984867;28;20050;-69
2022/02/21 13:45:23;;;;;;;2.60;0.68;;;;;;;;;;4986054;28;20163;-71
2022/02/21 13:48:08;;;;;;;5.07;1.38;;;;;;;;;;4987320;28;20061;-70
2022/02/21 13:51:01;;;;;;;4.57;1.25;;;;;;;;;;4986719;28;20428;-69
2022/02/21 13:53:34;;;;;;;6.93;2.30;;;;;;;;;;4982797;28;20084;-69
2022/02/21 13:56:17;;;;;;;6.60;1.73;;;;;;;;;;4985398;28;20058;-70
2022/02/21 13:58:50;;;;;;;;;;;;;;;;;;4992929;28;20054;-69
2022/02/21 14:01:24;;;;;;;5.20;2.20;;;;;;;;;;4990787;28;19923;-70
2022/02/21 14:03:56;;;;;;;4.30;1.17;;;;;;;;;;4984821;28;20065;-69
2022/02/21 14:06:26;;;;;;;3.67;1.20;;;;;;;;;;4986540;28;20057;-70
2022/02/21 14:08:55;;;;;;;6.65;1.38;;;;;;;;;;4987880;28;20053;-70
2022/02/21 14:11:34;;;;;;;3.97;1.63;;;;;;;;;;4985222;28;20052;-68
2022/02/21 14:14:27;;;;;;;5.30;0.85;;;;;;;;;;4988217;28;20050;-69
2022/02/21 14:17:00;;;;;;;4.70;1.05;;;;;;;;;;4980564;28;20047;-66
2022/02/21 14:19:27;;;;;;;3.33;1.08;;;;;;;;;;4981949;28;20054;-69
2022/02/21 14:21:55;;;;;;;4.85;2.33;;;;;;;;;;4985493;28;20105;-68
2022/02/21 14:24:22;;;;;;;1.90;0.82;;;;;;;;;;4983798;28;20050;-68
2022/02/21 14:26:48;;;;;;;6.20;1.17;;;;;;;;;;4986047;28;20186;-68
2022/02/21 14:29:15;;;;;;;6.45;0.95;;;;;;;;;;4979995;28;20104;-69
2022/02/21 14:31:42;;;;;;;3.33;0.98;;;;;;;;;;4981857;28;20054;-70
2022/02/21 14:34:08;;;;;;;3.35;0.98;;;;;;;;;;4979340;28;20569;-69
2022/02/21 14:36:36;;;;;;;6.13;1.27;;;;;;;;;;4984246;28;20050;-68
2022/02/21 14:39:03;;;;;;;6.32;1.10;;;;;;;;;;4976957;28;20050;-69
2022/02/21 14:41:30;;;;;;;7.43;1.30;;;;;;;;;;4976186;28;20117;-69
2022/02/21 14:43:57;;;;;;;4.00;1.42;;;;;;;;;;4978542;28;20054;-69
2022/02/21 14:46:24;;;;;;;4.35;1.00;;;;;;;;;;4978146;28;20480;-68
2022/02/21 14:48:52;;;;;;;4.93;1.30;;;;;;;;;;4978394;28;20101;-69
2022/02/21 14:51:24;;;;;;;3.03;0.80;;;;;;;;;;4977097;28;20050;-69